Airfield :







YOU CAN JOIN US ON...

 
LOGIN :

Register | Disclaimer

   EN    FR    IT 

 









Legend :    VFR   Marginal VFR   IFR   Intensive IFR   Very Intensive IFR
Visi :
Ceiling :
>= 8 km
>= 3000ft
5 to 8 km
1000 to 3000 ft
1500m to 5 km
500 to 1000 ft
800 to 1500m
200 to 500 ft
< 800m
< 200 ft
Symbols :   Thunderstorms  Fog  Heavy snow  Heavy precipitations  Wind > 20 kt






- Airport Elevation : 203 ft
- IATA code : YQY


CYQY - Sydney

CURRENT METAR :
  • 161800Z 27011KT 15SM BKN023 BKN180 BKN200 20/15 A3020 RMK SC5AC1CI1 SLP229 DENSITY ALT 500FT

EXPIRED METARs :
  • 161700Z 29008KT 15SM SCT024 BKN130 BKN160 21/16 A3019 RMK SC3AC2AC2 SLP224 DENSITY ALT 600FT
  • 161600Z 29011KT 15SM FEW035 BKN100 BKN130 20/15 A3016 RMK SC2AC4AC1 SLP216 DENSITY ALT 600FT

TAF AMD TAF CYQY
Valid from the 16 at 18:00 until the 17 at 06:00 UTC


161823Z 1618/1706 30015KT P6SM SCT030
TEMPO 1618/1620 P6SM -SHRA BKN020
BECMG 1621/1623 VRB03KT SKC RMK NXT FCST BY 170000Z
CZQM FIR / North America



MET'MAP, your aeronautical weather chart ! - Copyright ORBIFLY December 2007 - Disclaimer

ORBIFLY MET'MAP TEAM :

Programming & Development : Alexandra Zaïnal
Concept & original design : Baudouin d'Aumeries
Assistance for programming : Marc-Olivier Méhu
Technical & hardware support : Manuel Goepfert

Contact : metmap@orbifly.com




SOURCES & CREDITS :

   NOAA